Time;durP1;ratioP1;P1;durP2;ratioP2;P2;SDS_P1;SDS_P2;PMS_P1;PMS_P2;Temp;Humidity;BMP_temperature;BMP_pressure;BME280_temperature;BME280_humidity;BME280_pressure;Samples;Min_cycle;Max_cycle;Signal;HPM_P1;HPM_P2
2022/01/17 00:01:13;;;;;;;166.55;154.68;;;;;;;6.66;80.67;101776.47;5007628;28;20077;-66
2022/01/17 00:03:39;;;;;;;361.02;330.33;;;;;;;6.60;80.66;101784.41;5007014;28;20046;-66
2022/01/17 00:06:06;;;;;;;228.90;212.00;;;;;;;6.85;79.95;101784.81;5006767;28;20050;-66
2022/01/17 00:08:33;;;;;;;68.50;61.33;;;;;;;6.70;80.15;101787.69;5007518;28;20041;-66
2022/01/17 00:11:00;;;;;;;266.42;248.20;;;;;;;6.68;79.91;101782.53;5007379;28;20117;-66
2022/01/17 00:13:29;;;;;;;680.08;440.90;;;;;;;6.50;80.21;101785.50;5006611;28;20092;-66
2022/01/17 00:15:59;;;;;;;67.00;60.75;;;;;;;6.69;79.83;101789.44;5006728;28;20042;-66
2022/01/17 00:18:53;;;;;;;378.02;347.33;;;;;;;6.62;79.67;101776.56;5007412;28;20127;-66
2022/01/17 00:21:19;;;;;;;319.08;287.98;;;;;;;6.79;78.63;101762.34;5005725;28;20052;-66
2022/01/17 00:23:45;;;;;;;273.08;249.38;;;;;;;6.79;78.76;101749.31;5006899;28;20046;-66
2022/01/17 00:26:13;;;;;;;214.15;197.07;;;;;;;6.63;79.17;101750.47;5006885;28;20615;-66
2022/01/17 00:28:39;;;;;;;107.03;98.72;;;;;;;6.78;78.19;101750.19;5006606;28;20552;-67
2022/01/17 00:31:05;;;;;;;257.33;229.55;;;;;;;6.54;78.89;101748.03;5006540;28;20050;-66
2022/01/17 00:33:32;;;;;;;134.52;125.28;;;;;;;6.57;78.84;101766.25;5005608;28;20394;-66
2022/01/17 00:35:59;;;;;;;166.27;153.02;;;;;;;6.71;78.38;101751.19;5005331;28;20046;-66
2022/01/17 00:38:25;;;;;;;169.93;157.70;;;;;;;6.80;77.86;101761.41;5009858;28;20077;-66
2022/01/17 00:40:51;;;;;;;183.00;171.95;;;;;;;6.70;78.16;101754.69;4987354;28;20104;-66
2022/01/17 00:43:19;;;;;;;135.73;125.25;;;;;;;6.82;77.30;101753.59;4986735;28;20042;-66
2022/01/17 00:45:45;;;;;;;63.10;57.83;;;;;;;6.99;77.29;101766.25;5001927;28;20053;-67
2022/01/17 00:48:12;;;;;;;134.13;125.10;;;;;;;6.89;76.97;101756.91;5005471;28;20042;-67
2022/01/17 00:50:40;;;;;;;76.53;70.90;;;;;;;6.97;76.67;101752.41;5006377;28;20042;-67
2022/01/17 00:53:07;;;;;;;354.70;329.30;;;;;;;6.58;77.58;101751.44;5004946;28;20180;-67
2022/01/17 00:55:35;;;;;;;428.65;400.20;;;;;;;6.61;77.41;101749.66;4984606;28;20453;-67
2022/01/17 00:58:02;;;;;;;79.68;73.47;;;;;;;6.78;76.85;101751.94;4985461;28;20575;-67
2022/01/17 01:00:30;;;;;;;552.70;503.95;;;;;;;6.66;76.76;101750.41;4997442;28;20077;-67
2022/01/17 01:02:57;;;;;;;111.93;104.88;;;;;;;6.74;76.65;101750.25;5005338;28;20042;-67
2022/01/17 01:05:24;;;;;;;374.05;348.13;;;;;;;6.78;76.16;101747.56;5004481;28;20108;-67
2022/01/17 01:07:53;;;;;;;144.27;135.95;;;;;;;6.96;75.69;101748.06;5003789;28;20045;-67
2022/01/17 01:10:20;;;;;;;266.38;250.70;;;;;;;6.87;75.56;101745.69;5004054;28;20050;-67
2022/01/17 01:12:48;;;;;;;169.93;160.25;;;;;;;6.70;76.11;101731.22;5004054;28;20074;-67
2022/01/17 01:15:19;;;;;;;282.58;265.08;;;;;;;6.82;76.01;101725.78;5005242;28;20054;-67
2022/01/17 01:17:51;;;;;;;203.27;189.55;;;;;;;6.89;75.45;101717.81;5003926;28;20049;-66
2022/01/17 01:20:30;;;;;;;164.27;155.35;;;;;;;6.89;75.70;101710.00;5004593;28;21653;-67
2022/01/17 01:28:26;;;;;;;114.00;107.80;;;;;;;7.15;74.96;101733.75;4984277;28;20053;-67
2022/01/17 01:30:55;;;;;;;140.73;132.65;;;;;;;6.99;75.54;101728.00;4998182;28;20129;-67
2022/01/17 01:33:27;;;;;;;169.27;160.02;;;;;;;6.95;75.91;101722.91;5003161;28;20050;-67
2022/01/17 01:36:00;;;;;;;125.47;118.10;;;;;;;6.89;76.46;101720.41;5006221;28;20049;-67
2022/01/17 01:38:27;;;;;;;207.88;193.10;;;;;;;7.11;75.80;101724.28;4997471;28;20045;-67
2022/01/17 01:40:53;;;;;;;208.55;195.40;;;;;;;7.11;75.79;101724.28;5006969;28;20046;-67
2022/01/17 01:43:20;;;;;;;450.55;401.63;;;;;;;6.89;76.69;101725.63;5003669;28;20077;-67
2022/01/17 01:45:47;;;;;;;60.22;56.15;;;;;;;7.11;75.91;101738.19;5007502;28;20297;-67
2022/01/17 01:48:14;;;;;;;336.05;306.60;;;;;;;6.84;76.87;101728.31;5006386;28;20096;-67
2022/01/17 01:50:41;;;;;;;237.27;222.25;;;;;;;7.03;76.39;101705.34;4996626;28;20045;-67
2022/01/17 01:53:08;;;;;;;283.50;263.98;;;;;;;6.85;77.10;101712.66;5008377;28;20127;-67
2022/01/17 01:55:34;;;;;;;205.25;193.18;;;;;;;6.75;77.65;101732.00;5009727;28;20116;-67
2022/01/17 01:58:01;;;;;;;230.25;211.63;;;;;;;6.77;77.66;101727.59;5009582;28;20096;-67
2022/01/17 02:00:27;;;;;;;150.00;141.45;;;;;;;6.93;77.25;101714.25;5010568;28;20042;-67
2022/01/17 02:02:53;;;;;;;146.63;138.38;;;;;;;7.13;76.34;101720.75;5001528;28;20564;-67
2022/01/17 02:05:20;;;;;;;418.50;383.08;;;;;;;7.06;76.26;101719.16;5005121;28;20042;-67
2022/01/17 02:07:47;;;;;;;86.05;80.07;;;;;;;7.19;75.86;101722.38;5009063;28;20041;-67
2022/01/17 02:10:15;;;;;;;79.80;74.78;;;;;;;7.17;76.07;101722.41;5009741;28;20073;-67
2022/01/17 02:12:41;;;;;;;87.53;82.25;;;;;;;7.26;75.68;101734.38;5008968;28;20046;-67
2022/01/17 02:15:15;;;;;;;217.57;202.07;;;;;;;7.00;76.26;101727.13;5009367;28;20045;-67
2022/01/17 02:17:45;;;;;;;99.25;93.68;;;;;;;7.23;76.06;101739.69;5007844;28;20046;-67
2022/01/17 02:20:17;;;;;;;264.47;248.27;;;;;;;6.84;77.15;101734.41;5005043;28;20057;-67
2022/01/17 02:22:43;;;;;;;92.78;87.53;;;;;;;7.04;76.11;101728.78;5008921;28;20050;-67
2022/01/17 02:25:10;;;;;;;82.57;77.60;;;;;;;7.31;75.22;101737.75;5008691;28;20100;-67
2022/01/17 02:27:37;;;;;;;258.65;241.90;;;;;;;7.23;74.90;101727.50;5026605;28;20107;-67
2022/01/17 02:30:04;;;;;;;185.55;173.20;;;;;;;7.24;75.31;101725.75;5020349;28;20042;-68
2022/01/17 02:32:30;;;;;;;144.32;136.32;;;;;;;7.29;74.67;101710.84;5008266;28;20099;-67
2022/01/17 02:35:11;;;;;;;209.90;198.15;;;;;;;7.30;74.44;101716.03;5008801;28;20456;-67
2022/01/17 02:37:39;;;;;;;62.33;59.05;;;;;;;7.31;74.28;101724.72;5006853;28;20489;-67
2022/01/17 02:40:07;;;;;;;83.97;79.72;;;;;;;7.14;74.40;101701.59;5017037;28;20711;-67
2022/01/17 02:42:35;;;;;;;363.00;335.73;;;;;;;6.69;75.08;101706.03;5007655;28;20493;-67
2022/01/17 02:45:11;;;;;;;150.77;143.35;;;;;;;6.71;74.81;101714.72;5007555;28;20050;-67
2022/01/17 02:47:37;;;;;;;94.75;89.90;;;;;;;6.63;74.55;101706.19;5015732;28;20049;-67
2022/01/17 02:50:04;;;;;;;119.22;113.32;;;;;;;6.78;74.03;101723.25;5022594;28;20514;-67
2022/01/17 02:52:30;;;;;;;135.30;127.93;;;;;;;6.53;72.36;101703.78;5008220;28;20445;-67
2022/01/17 02:54:58;;;;;;;163.43;153.60;;;;;;;6.67;71.80;101701.75;5008563;28;20405;-67
2022/01/17 02:57:25;;;;;;;251.15;237.10;;;;;;;6.61;70.66;101697.53;5009188;28;20045;-68
2022/01/17 02:59:52;;;;;;;243.20;226.98;;;;;;;6.54;69.79;101695.09;5009769;28;20072;-67
2022/01/17 03:02:18;;;;;;;118.15;110.35;;;;;;;6.43;70.31;101697.88;5008945;28;20048;-67
2022/01/17 03:04:44;;;;;;;229.07;215.85;;;;;;;6.59;69.62;101693.22;5009143;28;20174;-67
2022/01/17 03:07:11;;;;;;;82.70;77.93;;;;;;;6.61;69.03;101678.44;5007958;28;20100;-67
2022/01/17 03:09:45;;;;;;;174.93;160.32;;;;;;;6.64;67.46;101667.94;5008716;28;20123;-68
2022/01/17 03:12:14;;;;;;;340.73;313.23;;;;;;;6.48;67.49;101667.41;5009366;28;20417;-67
2022/01/17 03:14:40;;;;;;;63.22;59.75;;;;;;;6.76;66.72;101686.78;5009729;28;20096;-68
2022/01/17 03:17:07;;;;;;;502.30;400.75;;;;;;;6.66;66.51;101680.06;5009399;28;20053;-68
2022/01/17 03:19:34;;;;;;;86.60;82.05;;;;;;;6.54;66.38;101682.91;5009648;28;20049;-67
2022/01/17 03:22:00;;;;;;;243.77;227.70;;;;;;;6.49;66.46;101671.72;5009735;28;20100;-68
2022/01/17 03:24:26;;;;;;;103.53;97.63;;;;;;;6.52;66.80;101673.41;5009809;28;20137;-67
2022/01/17 03:26:53;;;;;;;232.20;215.63;;;;;;;6.27;66.77;101660.00;5009357;28;20112;-67
2022/01/17 03:29:20;;;;;;;223.15;208.73;;;;;;;6.31;66.62;101635.63;5009637;28;20050;-67
2022/01/17 03:31:47;;;;;;;52.42;48.55;;;;;;;6.50;66.79;101634.38;5009284;28;20132;-68
2022/01/17 03:34:13;;;;;;;319.10;294.55;;;;;;;6.25;67.83;101635.72;4973406;28;1006242;-67
2022/01/17 03:36:40;;;;;;;127.85;120.80;;;;;;;6.21;67.46;101628.88;5006208;28;20046;-67
2022/01/17 03:39:07;;;;;;;206.48;191.18;;;;;;;6.20;68.03;101629.78;5006228;28;20060;-67
2022/01/17 03:41:33;;;;;;;271.77;255.65;;;;;;;6.26;68.13;101640.06;5009686;28;20128;-67
2022/01/17 03:43:59;;;;;;;404.63;358.38;;;;;;;6.18;68.02;101640.22;5012952;28;20045;-67
2022/01/17 03:46:27;;;;;;;190.75;178.05;;;;;;;6.28;68.19;101653.94;5009449;28;20046;-67
2022/01/17 03:48:54;;;;;;;592.88;494.35;;;;;;;6.28;68.17;101646.13;5009684;28;20073;-67
2022/01/17 03:51:20;;;;;;;92.50;85.80;;;;;;;6.56;68.28;101631.63;5009738;28;20131;-67
2022/01/17 03:53:46;;;;;;;129.00;121.90;;;;;;;6.53;67.64;101621.28;5009841;28;20104;-68
2022/01/17 03:56:13;;;;;;;347.10;316.67;;;;;;;6.67;67.29;101606.19;5009996;28;20046;-68
2022/01/17 03:58:39;;;;;;;469.33;429.35;;;;;;;6.43;68.66;101618.91;5009596;28;20485;-68
2022/01/17 04:01:06;;;;;;;420.92;374.15;;;;;;;6.40;68.94;101618.94;5009489;28;20123;-67
2022/01/17 04:03:34;;;;;;;657.95;500.25;;;;;;;6.20;69.85;101619.34;5009242;28;20050;-67
2022/01/17 04:06:01;;;;;;;240.23;225.80;;;;;;;6.39;69.46;101623.31;5009423;28;20049;-67
2022/01/17 04:08:28;;;;;;;88.03;83.30;;;;;;;6.49;69.46;101618.75;4997660;28;20104;-68
2022/01/17 04:10:54;;;;;;;356.40;322.48;;;;;;;6.41;70.29;101613.72;5008809;28;20042;-68
2022/01/17 04:13:22;;;;;;;294.08;275.30;;;;;;;6.33;70.80;101652.94;5007587;28;20077;-67
2022/01/17 04:15:49;;;;;;;242.10;226.57;;;;;;;6.40;70.91;101647.59;5009701;28;20133;-68
2022/01/17 04:18:19;;;;;;;185.90;175.55;;;;;;;6.51;70.98;101648.22;5006872;28;20054;-67
2022/01/17 04:20:47;;;;;;;166.57;156.73;;;;;;;6.54;71.00;101663.81;5009135;28;20124;-68
2022/01/17 04:23:14;;;;;;;393.63;355.15;;;;;;;6.20;71.78;101648.88;5008904;28;20046;-68
2022/01/17 04:25:42;;;;;;;200.75;188.73;;;;;;;6.24;71.92;101655.72;5009622;28;20042;-67
2022/01/17 04:28:10;;;;;;;465.50;426.33;;;;;;;6.14;72.50;101643.75;5005004;28;20112;-67
2022/01/17 04:30:37;;;;;;;377.08;341.45;;;;;;;6.15;72.46;101639.41;5009420;28;20457;-67
2022/01/17 04:33:04;;;;;;;294.30;268.95;;;;;;;6.26;71.90;101642.66;5001255;28;20077;-67
2022/01/17 04:35:31;;;;;;;189.55;178.30;;;;;;;6.19;71.78;101651.47;5008038;28;20100;-67
2022/01/17 04:38:03;;;;;;;94.68;89.63;;;;;;;6.46;71.36;101655.31;5007298;28;20042;-67
2022/01/17 04:40:35;;;;;;;519.55;480.38;;;;;;;6.41;71.23;101657.13;5008179;28;20453;-67
2022/01/17 04:43:04;;;;;;;278.52;259.88;;;;;;;6.42;71.39;101672.75;5007756;28;20037;-67
2022/01/17 04:45:31;;;;;;;122.68;115.60;;;;;;;6.41;71.39;101678.84;5008353;28;20077;-67
2022/01/17 04:47:57;;;;;;;274.40;253.32;;;;;;;6.26;71.71;101655.69;4993788;28;20042;-68
2022/01/17 04:50:25;;;;;;;275.27;254.75;;;;;;;6.22;72.00;101682.66;5007260;28;20050;-68
2022/01/17 04:52:54;;;;;;;287.75;267.25;;;;;;;6.29;72.16;101666.91;5010197;28;20055;-68
2022/01/17 04:55:23;;;;;;;253.88;238.77;;;;;;;6.19;72.29;101667.09;5007402;28;20077;-68
2022/01/17 04:57:50;;;;;;;145.55;137.90;;;;;;;6.39;72.00;101682.38;5007884;28;20494;-68
2022/01/17 05:00:18;;;;;;;103.68;97.35;;;;;;;6.56;71.66;101670.72;5008831;28;20053;-68
2022/01/17 05:02:45;;;;;;;122.32;115.72;;;;;;;6.56;71.72;101662.03;5003333;28;20069;-68
2022/01/17 05:05:12;;;;;;;223.93;210.48;;;;;;;6.45;72.00;101690.03;5007777;28;20722;-68
2022/01/17 05:07:39;;;;;;;546.97;441.83;;;;;;;6.23;73.00;101680.06;5001401;28;20050;-67
2022/01/17 05:10:08;;;;;;;380.25;352.10;;;;;;;6.25;73.49;101680.88;5004099;28;20249;-67
2022/01/17 05:12:36;;;;;;;266.30;247.73;;;;;;;6.33;73.32;101671.16;5005629;28;20129;-67
2022/01/17 05:15:03;;;;;;;103.07;97.22;;;;;;;6.46;73.22;101677.00;5008226;28;20042;-67
2022/01/17 05:17:43;;;;;;;119.75;113.47;;;;;;;6.36;73.75;101683.25;4998268;28;20042;-68
2022/01/17 05:20:10;;;;;;;100.55;94.90;;;;;;;6.18;74.67;101702.69;5006129;28;20741;-67
2022/01/17 05:22:38;;;;;;;65.88;61.60;;;;;;;6.36;74.44;101693.69;5010751;28;20068;-68
2022/01/17 05:25:07;;;;;;;135.13;127.85;;;;;;;6.39;74.50;101683.22;5013157;28;20049;-68
2022/01/17 05:27:35;;;;;;;240.45;224.45;;;;;;;6.15;75.57;101673.25;5011820;28;20070;-67
2022/01/17 05:30:04;;;;;;;173.50;163.73;;;;;;;6.10;75.58;101656.84;5005921;28;20042;-67
2022/01/17 05:32:31;;;;;;;157.43;148.10;;;;;;;6.19;75.20;101656.69;5006880;28;20149;-68
2022/01/17 05:34:57;;;;;;;87.53;82.07;;;;;;;6.29;75.53;101653.88;5002777;28;20107;-67
2022/01/17 05:37:23;;;;;;;319.40;288.40;;;;;;;6.16;75.49;101661.97;5013461;28;20062;-67
2022/01/17 05:39:50;;;;;;;65.68;61.10;;;;;;;6.34;75.31;101659.88;5011270;28;20050;-67
2022/01/17 05:42:18;;;;;;;483.02;431.25;;;;;;;6.07;76.23;101657.78;5000416;28;20055;-67
2022/01/17 05:44:45;;;;;;;146.57;137.32;;;;;;;5.96;76.67;101658.84;5005972;28;20045;-67
2022/01/17 05:47:13;;;;;;;287.13;265.83;;;;;;;6.07;76.51;101642.16;5011421;28;20100;-67
2022/01/17 05:49:39;;;;;;;266.25;247.63;;;;;;;6.24;75.94;101657.47;5013878;28;20497;-67
2022/01/17 05:52:07;;;;;;;181.40;170.73;;;;;;;5.94;77.25;101655.44;5011553;28;20087;-66
2022/01/17 05:54:33;;;;;;;95.70;90.78;;;;;;;6.20;76.59;101648.00;5011844;28;20049;-66
2022/01/17 05:56:59;;;;;;;163.38;154.80;;;;;;;6.01;77.64;101639.69;5011312;28;20057;-67
2022/01/17 05:59:26;;;;;;;75.50;70.80;;;;;;;6.09;77.53;101656.03;5010804;28;20062;-67
2022/01/17 06:01:52;;;;;;;261.05;246.52;;;;;;;5.94;77.80;101645.88;5003059;28;20105;-67
2022/01/17 06:04:20;;;;;;;185.50;171.52;;;;;;;5.98;78.29;101639.75;5006611;28;20481;-67
2022/01/17 06:06:47;;;;;;;375.85;351.65;;;;;;;5.76;79.07;101636.63;5010755;28;20045;-67
2022/01/17 06:09:13;;;;;;;809.35;589.97;;;;;;;5.72;78.89;101632.38;5001960;28;20045;-67
2022/01/17 06:11:40;;;;;;;311.45;281.40;;;;;;;5.71;79.04;101621.97;5011465;28;20468;-67
2022/01/17 06:14:07;;;;;;;257.13;240.32;;;;;;;5.81;78.51;101623.53;5011447;28;20112;-67
2022/01/17 06:16:35;;;;;;;519.95;463.80;;;;;;;5.85;78.54;101640.78;5009958;28;20516;-67
2022/01/17 06:19:01;;;;;;;289.17;268.33;;;;;;;5.82;79.00;101646.06;5010468;28;20050;-67
2022/01/17 06:21:29;;;;;;;265.05;249.80;;;;;;;6.05;77.97;101661.31;5011400;28;20073;-67
2022/01/17 06:23:55;;;;;;;248.43;232.48;;;;;;;5.99;78.23;101669.22;5011436;28;20146;-67
2022/01/17 06:26:21;;;;;;;197.45;185.90;;;;;;;5.86;78.80;101676.41;5010475;28;20132;-67
2022/01/17 06:28:48;;;;;;;331.15;308.60;;;;;;;5.93;78.78;101653.72;5009409;28;20046;-67
2022/01/17 06:31:14;;;;;;;656.75;589.08;;;;;;;5.75;79.26;101655.72;5009601;28;20108;-67
2022/01/17 06:33:41;;;;;;;121.25;114.55;;;;;;;5.92;79.26;101646.78;5008967;28;20084;-67
2022/01/17 06:36:07;;;;;;;82.30;77.43;;;;;;;6.15;77.57;101629.00;5009112;28;20105;-67
2022/01/17 06:38:35;;;;;;;721.90;566.55;;;;;;;5.73;78.47;101625.41;5008261;28;20503;-67
2022/01/17 06:41:01;;;;;;;558.20;506.83;;;;;;;5.92;77.77;101631.16;5005995;28;20049;-67
2022/01/17 06:43:28;;;;;;;408.75;376.05;;;;;;;5.83;77.79;101629.56;5009790;28;20041;-67
2022/01/17 06:45:54;;;;;;;167.32;155.23;;;;;;;5.95;77.50;101625.94;5010224;28;20069;-67
2022/01/17 06:48:20;;;;;;;136.25;129.65;;;;;;;6.01;77.35;101642.28;5009846;28;20053;-67
2022/01/17 06:50:47;;;;;;;644.08;574.67;;;;;;;5.84;77.64;101634.72;5010159;28;20054;-67
2022/01/17 06:53:13;;;;;;;112.35;106.38;;;;;;;6.08;77.10;101640.41;5009943;28;20098;-67
2022/01/17 06:55:41;;;;;;;317.00;293.42;;;;;;;6.04;76.93;101630.94;5010559;28;20076;-67
2022/01/17 06:58:07;;;;;;;256.75;240.18;;;;;;;6.11;76.69;101658.56;5011804;28;20496;-67
2022/01/17 07:00:33;;;;;;;181.02;170.95;;;;;;;5.91;77.29;101645.09;5009333;28;20054;-67
2022/01/17 07:03:00;;;;;;;141.10;134.60;;;;;;;5.98;76.66;101662.31;5001122;28;20116;-67
2022/01/17 07:05:26;;;;;;;403.85;360.65;;;;;;;6.21;75.66;101665.31;5008994;28;20387;-67
2022/01/17 07:07:53;;;;;;;213.98;200.25;;;;;;;6.33;75.38;101672.91;5000966;28;20108;-67
2022/01/17 07:10:19;;;;;;;83.20;78.80;;;;;;;6.48;74.92;101690.84;5010112;28;20057;-67
2022/01/17 07:12:47;;;;;;;122.18;115.43;;;;;;;6.44;75.11;101686.59;5008556;28;20042;-67
2022/01/17 07:15:13;;;;;;;465.10;431.02;;;;;;;6.10;76.15;101677.69;5000367;28;20100;-67
2022/01/17 07:17:39;;;;;;;381.70;353.73;;;;;;;6.24;75.46;101673.09;5009665;28;20108;-67
2022/01/17 07:20:07;;;;;;;216.00;204.35;;;;;;;6.31;75.34;101661.66;5006052;28;20049;-67
2022/01/17 07:22:33;;;;;;;209.68;197.55;;;;;;;6.16;75.76;101638.53;5009983;28;20678;-67
2022/01/17 07:25:00;;;;;;;633.67;533.53;;;;;;;6.19;75.61;101615.88;5009702;28;20489;-67
2022/01/17 07:27:26;;;;;;;541.40;483.08;;;;;;;6.17;75.65;101612.44;5009151;28;20046;-67
2022/01/17 07:29:54;;;;;;;177.65;163.02;;;;;;;6.38;75.07;101631.16;5008638;28;20100;-67
2022/01/17 07:32:20;;;;;;;236.63;221.55;;;;;;;6.34;75.02;101617.31;5009389;28;20046;-67
2022/01/17 07:34:47;;;;;;;412.55;383.35;;;;;;;6.42;75.15;101612.81;5008610;28;20053;-67
2022/01/17 07:37:13;;;;;;;440.77;400.42;;;;;;;6.30;75.66;101626.09;5008513;28;20064;-67
2022/01/17 07:39:39;;;;;;;170.18;160.85;;;;;;;6.28;75.92;101627.88;5007899;28;20065;-67
2022/01/17 07:42:07;;;;;;;124.40;117.53;;;;;;;6.26;76.12;101635.72;5007582;28;20406;-66
2022/01/17 07:44:34;;;;;;;222.20;208.93;;;;;;;6.22;76.63;101646.22;5007564;28;20115;-67
2022/01/17 07:47:04;;;;;;;377.38;349.30;;;;;;;6.32;76.05;101639.94;5006841;28;20053;-67
2022/01/17 07:49:31;;;;;;;445.90;407.40;;;;;;;6.26;76.17;101643.53;5009955;28;20046;-67
2022/01/17 07:51:59;;;;;;;234.35;218.05;;;;;;;6.48;75.74;101638.75;5008458;28;20069;-67
2022/01/17 07:54:27;;;;;;;439.83;408.27;;;;;;;6.36;76.20;101652.88;5008896;28;20074;-67
2022/01/17 07:56:54;;;;;;;158.73;149.00;;;;;;;6.46;76.09;101647.50;5009345;28;20041;-67
2022/01/17 07:59:20;;;;;;;222.73;209.07;;;;;;;6.31;76.55;101656.47;5009792;28;20045;-66
2022/01/17 08:01:47;;;;;;;244.98;231.10;;;;;;;6.38;76.63;101671.09;5006392;28;20096;-66
2022/01/17 08:04:14;;;;;;;218.00;202.52;;;;;;;6.43;76.08;101671.81;5008843;28;20049;-67
2022/01/17 08:06:41;;;;;;;488.33;447.17;;;;;;;6.42;76.40;101677.94;5009143;28;20587;-66
2022/01/17 08:09:11;;;;;;;398.30;371.58;;;;;;;6.45;76.83;101664.84;5008939;28;20076;-66
2022/01/17 08:11:37;;;;;;;258.10;243.55;;;;;;;6.63;76.79;101669.69;5008254;28;20045;-67
2022/01/17 08:14:04;;;;;;;557.97;506.45;;;;;;;6.36;77.96;101650.25;5009293;28;20073;-67
2022/01/17 08:16:31;;;;;;;383.40;349.63;;;;;;;6.38;78.21;101646.78;5008788;28;20042;-67
2022/01/17 08:18:57;;;;;;;169.45;157.55;;;;;;;6.53;78.01;101649.06;5008957;28;20486;-67
2022/01/17 08:21:25;;;;;;;79.75;74.75;;;;;;;6.58;77.90;101653.28;5008964;28;20516;-67
2022/01/17 08:23:53;;;;;;;91.60;86.80;;;;;;;6.34;79.04;101638.16;5008871;28;20146;-67
2022/01/17 08:26:20;;;;;;;234.15;219.10;;;;;;;6.31;78.87;101633.03;5009363;28;20069;-67
2022/01/17 08:28:47;;;;;;;422.88;384.88;;;;;;;6.26;79.21;101633.09;5008758;28;20073;-67
2022/01/17 08:31:13;;;;;;;288.60;268.67;;;;;;;6.44;78.80;101626.66;5008880;28;20053;-67
2022/01/17 08:33:40;;;;;;;340.50;316.05;;;;;;;6.43;79.18;101624.09;5007984;28;20123;-67
2022/01/17 08:36:07;;;;;;;93.45;88.65;;;;;;;6.56;78.40;101635.97;5008084;28;20105;-67
2022/01/17 08:38:35;;;;;;;309.85;289.15;;;;;;;6.33;78.71;101619.06;5009028;28;20050;-66
2022/01/17 08:41:02;;;;;;;228.85;215.15;;;;;;;6.57;78.58;101628.13;5007417;28;20127;-67
2022/01/17 08:43:28;;;;;;;342.40;271.48;;;;;;;6.38;78.69;101631.16;5008704;28;20533;-67
2022/01/17 08:45:55;;;;;;;182.93;171.60;;;;;;;6.59;78.50;101638.50;5008634;28;20163;-67
2022/01/17 08:48:22;;;;;;;478.58;427.58;;;;;;;6.52;78.82;101629.97;5008772;28;20042;-67
2022/01/17 08:50:50;;;;;;;525.13;429.20;;;;;;;6.53;78.63;101630.84;4989134;28;20046;-67
2022/01/17 08:53:18;;;;;;;544.00;493.52;;;;;;;6.45;79.49;101627.53;4995759;28;20481;-67
2022/01/17 08:55:46;;;;;;;591.22;531.75;;;;;;;6.58;78.99;101619.41;5006286;28;20049;-66
2022/01/17 08:58:14;;;;;;;161.25;152.60;;;;;;;6.58;79.09;101622.00;5008629;28;20045;-66
2022/01/17 09:00:41;;;;;;;368.40;347.35;;;;;;;6.59;79.07;101621.13;5007676;28;20053;-67
2022/01/17 09:03:08;;;;;;;606.70;551.97;;;;;;;6.59;78.83;101610.72;5007553;28;20130;-67
2022/01/17 09:05:35;;;;;;;730.85;668.10;;;;;;;6.50;79.55;101594.44;5009161;28;20042;-67
2022/01/17 09:08:03;;;;;;;554.45;499.30;;;;;;;6.62;78.79;101597.59;5008286;28;20116;-67
2022/01/17 09:10:29;;;;;;;661.67;603.85;;;;;;;7.03;77.81;101606.25;5008568;28;20522;-67
2022/01/17 09:12:57;;;;;;;303.88;288.75;;;;;;;7.48;75.70;101620.78;5007878;28;20217;-67
2022/01/17 09:15:24;;;;;;;307.83;292.80;;;;;;;7.51;75.93;101610.28;5008489;28;20420;-67
2022/01/17 09:17:50;;;;;;;508.52;470.92;;;;;;;7.38;75.72;101613.25;5008436;28;20046;-67
2022/01/17 09:20:17;;;;;;;644.88;599.65;;;;;;;7.42;76.36;101605.31;5008604;28;20100;-67
2022/01/17 09:22:43;;;;;;;542.45;501.88;;;;;;;7.43;76.05;101591.34;5008441;28;20066;-67
2022/01/17 09:25:11;;;;;;;426.38;400.52;;;;;;;7.53;76.46;101616.34;5008874;28;20443;-67
2022/01/17 09:27:38;;;;;;;450.98;420.88;;;;;;;7.61;75.51;101632.63;5008384;28;20046;-67
2022/01/17 09:30:09;;;;;;;353.73;328.30;;;;;;;7.44;75.77;101650.47;5008799;28;20060;-67
2022/01/17 09:32:36;;;;;;;;;;;;;;;7.17;77.05;101635.47;5002220;28;20061;-67
2022/01/17 09:35:03;;;;;;;514.92;478.02;;;;;;;7.10;77.24;101620.84;5007896;28;19929;-67
2022/01/17 09:37:29;;;;;;;604.97;560.20;;;;;;;7.10;77.56;101620.84;5008371;28;20555;-67
2022/01/17 09:39:56;;;;;;;540.42;496.83;;;;;;;7.44;76.53;101634.81;5008350;28;20111;-67
2022/01/17 09:42:22;;;;;;;668.28;547.08;;;;;;;7.27;76.61;101643.06;5007381;28;20092;-67
2022/01/17 09:44:48;;;;;;;191.27;182.30;;;;;;;7.64;75.96;101670.88;5008167;28;20076;-67
2022/01/17 09:47:17;;;;;;;754.88;689.47;;;;;;;7.10;77.79;101676.47;5008026;28;20050;-67
2022/01/17 09:49:53;;;;;;;505.23;471.38;;;;;;;6.93;79.12;101625.59;5007763;28;20050;-67
2022/01/17 09:52:34;;;;;;;455.67;428.13;;;;;;;7.09;78.70;101646.09;5007408;28;20042;-67
2022/01/17 09:55:06;;;;;;;770.97;673.17;;;;;;;7.34;77.32;101641.16;5008017;28;20509;-67
2022/01/17 09:57:35;;;;;;;707.00;632.70;;;;;;;7.61;76.94;101643.06;5005912;28;20045;-67
2022/01/17 10:00:01;;;;;;;722.80;651.25;;;;;;;7.57;76.50;101641.47;5004714;28;20038;-67
2022/01/17 10:02:29;;;;;;;184.10;175.93;;;;;;;7.36;78.15;101652.41;5005837;28;20702;-67
2022/01/17 10:04:55;;;;;;;399.55;377.58;;;;;;;7.40;78.51;101664.47;5004739;28;20128;-67
2022/01/17 10:07:24;;;;;;;546.30;475.63;;;;;;;7.23;78.97;101683.16;5009563;28;20046;-67
2022/01/17 10:09:56;;;;;;;334.75;313.33;;;;;;;7.45;78.55;101659.16;5009147;28;20046;-66
2022/01/17 10:12:22;;;;;;;485.00;448.98;;;;;;;7.79;77.24;101647.84;5009085;28;20050;-66
2022/01/17 10:14:58;;;;;;;260.52;247.40;;;;;;;8.24;75.57;101650.97;5009708;28;20089;-67
2022/01/17 10:17:41;;;;;;;436.40;395.25;;;;;;;8.20;74.88;101664.19;5009468;28;20483;-66
2022/01/17 10:20:10;;;;;;;411.95;383.80;;;;;;;8.10;75.71;101668.78;5009858;28;20042;-68
2022/01/17 10:22:46;;;;;;;179.43;168.95;;;;;;;8.31;75.13;101656.94;5010776;28;20054;-67
2022/01/17 10:25:23;;;;;;;329.50;310.95;;;;;;;8.17;76.00;101654.66;5010352;28;20045;-66
2022/01/17 10:28:13;;;;;;;475.90;434.98;;;;;;;8.12;77.06;101653.06;5010816;28;20130;-66
2022/01/17 10:31:00;;;;;;;507.83;475.10;;;;;;;7.80;78.85;101654.75;5004364;28;20038;-66
2022/01/17 10:36:18;;;;;;;605.38;556.60;;;;;;;7.60;79.73;101672.69;5011117;28;20512;-65
2022/01/17 10:38:45;;;;;;;301.27;286.58;;;;;;;7.71;80.16;101668.06;5010281;28;20053;-64
2022/01/17 10:41:13;;;;;;;447.42;414.98;;;;;;;7.58;80.51;101660.56;5010915;28;20243;-64
2022/01/17 10:43:42;;;;;;;294.35;280.05;;;;;;;7.65;80.72;101675.19;5010905;28;20042;-65
2022/01/17 10:46:10;;;;;;;333.50;315.23;;;;;;;7.67;80.73;101700.38;5011132;28;20133;-64
2022/01/17 10:48:40;;;;;;;372.95;354.40;;;;;;;7.70;80.98;101710.72;5009821;28;20192;-64
2022/01/17 10:51:08;;;;;;;380.70;361.83;;;;;;;7.68;81.46;101722.97;5011302;28;20049;-64
2022/01/17 10:53:37;;;;;;;303.83;289.55;;;;;;;7.52;82.36;101729.44;5009710;28;20474;-64
2022/01/17 10:56:08;;;;;;;732.10;650.80;;;;;;;7.34;82.81;101702.03;5010721;28;20067;-64
2022/01/17 10:58:36;;;;;;;697.73;629.50;;;;;;;7.28;83.65;101706.50;5010383;28;20462;-65
2022/01/17 11:01:06;;;;;;;447.35;420.65;;;;;;;7.40;83.33;101721.03;5010325;28;20042;-65
2022/01/17 11:03:34;;;;;;;605.72;556.38;;;;;;;7.54;83.33;101708.53;5008061;28;20131;-65
2022/01/17 11:06:04;;;;;;;562.25;517.42;;;;;;;7.51;83.00;101706.84;5002007;28;20108;-65
2022/01/17 11:08:32;;;;;;;365.20;345.27;;;;;;;7.74;82.07;101701.94;5008662;28;20512;-65
2022/01/17 11:11:03;;;;;;;743.70;673.92;;;;;;;7.62;82.22;101694.38;5010594;28;20041;-65
2022/01/17 11:13:33;;;;;;;324.00;304.58;;;;;;;7.77;82.87;101712.28;5010212;28;20053;-64
2022/01/17 11:16:03;;;;;;;431.88;404.23;;;;;;;7.88;82.59;101703.31;5010254;28;20050;-64